aviador You're here:

LFMH Decoded Metar

ST.-ETIENNE in FRANCE
Report Time2017-09-25 16:30:00
UTC Time2017-09-25 16:46:07
Flight Rules mvfr MVFR
WindCalm
Visibility9999 m
Phenomena:Shower Rain
Clouds:Broken 014 Hf
Broken 016 Hf
Broken 066 Hf
Overcast 080 Hf
Expected CloudBase > 400 ft AGL from Temp-Dew spread
Ceiling1,600 ft
Temp15°C (ISA +3)
Dew Point14°C (94% RH)
QNH1020 hPa
Density Alt1,611 ft
Elevation1,319 ft
Report Wrong Elevation
Raw Report
LFMH 251630Z AUTO 00000KT 9999 BKN016 BKN066 OVC080 15/14 Q1020
TEMPO SHRA BKN014 BKN032TCU=

Extra information for LFMH:More info

Metar Taf Metar & Taf Last 4 Metars F.Rules Stats Wind Profile Meteogram Temp Stats Airport Information Weather charts Add Link Nearby VenuesMetar ALERT Operation Metar Decoded Social comments